Time;durP1;ratioP1;P1;durP2;ratioP2;P2;SDS_P1;SDS_P2;PMS_P1;PMS_P2;Temp;Humidity;BMP_temperature;BMP_pressure;BME280_temperature;BME280_humidity;BME280_pressure;Samples;Min_cycle;Max_cycle;Signal;HPM_P1;HPM_P2
2024/01/27 00:01:59;;;;;;;30.90;4.40;;;;;;;;;;5032623;28;20285;-73
2024/01/27 00:04:24;;;;;;;24.43;3.90;;;;;;;;;;5046799;28;20186;-74
2024/01/27 00:06:50;;;;;;;26.63;3.70;;;;;;;;;;5036226;28;20182;-74
2024/01/27 00:09:15;;;;;;;25.50;3.83;;;;;;;;;;5034714;28;20217;-74
2024/01/27 00:11:40;;;;;;;32.40;4.00;;;;;;;;;;5035464;28;20220;-73
2024/01/27 00:14:06;;;;;;;23.53;4.23;;;;;;;;;;5040378;28;20247;-74
2024/01/27 00:16:31;;;;;;;25.13;4.03;;;;;;;;;;5039693;28;20654;-73
2024/01/27 00:18:57;;;;;;;24.13;3.67;;;;;;;;;;5036783;28;20216;-73
2024/01/27 00:21:22;;;;;;;19.70;3.60;;;;;;;;;;5030064;28;20190;-73
2024/01/27 00:23:47;;;;;;;24.37;3.93;;;;;;;;;;5039560;28;20280;-73
2024/01/27 00:26:13;;;;;;;21.30;3.77;;;;;;;;;;5047855;28;20592;-73
2024/01/27 00:28:38;;;;;;;24.40;3.73;;;;;;;;;;5036309;28;20186;-73
2024/01/27 00:31:04;;;;;;;19.67;3.60;;;;;;;;;;5033109;28;20258;-73
2024/01/27 00:33:29;;;;;;;23.93;3.77;;;;;;;;;;5039850;28;20239;-73
2024/01/27 00:35:55;;;;;;;28.70;3.97;;;;;;;;;;5045284;28;20186;-74
2024/01/27 00:38:20;;;;;;;19.97;3.50;;;;;;;;;;5037585;28;20628;-74
2024/01/27 00:40:45;;;;;;;17.03;3.23;;;;;;;;;;5032668;28;20645;-74
2024/01/27 00:43:11;;;;;;;24.23;3.63;;;;;;;;;;5040508;28;20190;-73
2024/01/27 00:45:36;;;;;;;24.00;3.77;;;;;;;;;;5046736;28;20197;-73
2024/01/27 00:48:02;;;;;;;22.47;4.40;;;;;;;;;;5031019;28;20247;-73
2024/01/27 00:50:27;;;;;;;21.17;3.30;;;;;;;;;;5050145;28;20236;-73
2024/01/27 00:52:53;;;;;;;19.77;3.40;;;;;;;;;;5046869;28;20549;-74
2024/01/27 00:55:18;;;;;;;25.00;4.73;;;;;;;;;;5049150;28;20628;-74
2024/01/27 00:57:44;;;;;;;21.30;4.07;;;;;;;;;;5038113;28;20200;-74
2024/01/27 01:00:10;;;;;;;17.57;3.83;;;;;;;;;;5035927;28;20211;-73
2024/01/27 01:02:36;;;;;;;26.80;3.73;;;;;;;;;;5038441;28;20193;-74
2024/01/27 01:05:03;;;;;;;17.10;3.50;;;;;;;;;;5042714;28;20198;-74
2024/01/27 01:07:32;;;;;;;21.63;3.50;;;;;;;;;;5038276;28;20190;-74
2024/01/27 01:09:57;;;;;;;27.43;3.87;;;;;;;;;;5033502;28;20220;-74
2024/01/27 01:12:25;;;;;;;20.93;3.50;;;;;;;;;;5038965;28;20555;-74
2024/01/27 01:14:51;;;;;;;23.43;4.03;;;;;;;;;;5035069;28;20193;-72
2024/01/27 01:17:16;;;;;;;29.23;4.13;;;;;;;;;;5045786;28;20242;-73
2024/01/27 01:19:42;;;;;;;20.67;3.87;;;;;;;;;;5029079;28;20206;-73
2024/01/27 01:22:07;;;;;;;21.00;3.70;;;;;;;;;;5036355;28;20281;-73
2024/01/27 01:24:33;;;;;;;21.80;3.23;;;;;;;;;;5047307;28;20251;-72
2024/01/27 01:26:59;;;;;;;15.80;3.40;;;;;;;;;;5036873;28;20193;-72
2024/01/27 01:29:24;;;;;;;20.93;3.80;;;;;;;;;;5038522;28;20202;-72
2024/01/27 01:31:50;;;;;;;18.83;3.63;;;;;;;;;;5030827;28;20178;-72
2024/01/27 01:34:15;;;;;;;23.07;3.80;;;;;;;;;;5026859;28;20590;-72
2024/01/27 01:36:41;;;;;;;26.47;4.10;;;;;;;;;;5034480;28;20591;-73
2024/01/27 01:39:07;;;;;;;25.43;3.33;;;;;;;;;;5030422;28;20236;-72
2024/01/27 01:41:32;;;;;;;18.80;3.43;;;;;;;;;;5038617;28;20284;-72
2024/01/27 01:43:58;;;;;;;27.73;3.50;;;;;;;;;;5027405;28;20260;-72
2024/01/27 01:46:23;;;;;;;27.53;4.00;;;;;;;;;;5044259;28;20320;-71
2024/01/27 01:48:49;;;;;;;26.93;4.13;;;;;;;;;;5053240;28;20243;-73
2024/01/27 01:51:16;;;;;;;21.97;3.93;;;;;;;;;;5033606;28;20190;-72
2024/01/27 01:53:42;;;;;;;25.67;3.73;;;;;;;;;;5029211;28;20224;-72
2024/01/27 01:56:08;;;;;;;25.60;4.40;;;;;;;;;;5018797;28;20209;-72
2024/01/27 01:58:34;;;;;;;18.37;3.60;;;;;;;;;;5039031;28;20312;-71
2024/01/27 02:01:02;;;;;;;21.73;3.53;;;;;;;;;;5032955;28;20244;-72
2024/01/27 02:03:27;;;;;;;23.37;4.00;;;;;;;;;;5046345;28;20227;-72
2024/01/27 02:05:54;;;;;;;19.87;3.97;;;;;;;;;;5046449;28;20221;-72
2024/01/27 02:08:19;;;;;;;19.00;3.50;;;;;;;;;;5052718;28;20275;-73
2024/01/27 02:10:45;;;;;;;22.03;3.47;;;;;;;;;;5019107;28;20312;-73
2024/01/27 02:13:22;;;;;;;25.33;3.93;;;;;;;;;;5044901;28;20185;-74
2024/01/27 02:15:49;;;;;;;19.03;3.60;;;;;;;;;;5037828;28;20189;-73
2024/01/27 02:18:15;;;;;;;29.27;4.03;;;;;;;;;;5037902;28;20616;-73
2024/01/27 02:20:41;;;;;;;23.37;4.77;;;;;;;;;;5043223;28;20182;-73
2024/01/27 02:23:06;;;;;;;21.23;4.03;;;;;;;;;;5033550;28;20198;-73
2024/01/27 02:25:32;;;;;;;24.07;3.90;;;;;;;;;;5041489;28;20193;-73
2024/01/27 02:27:58;;;;;;;22.30;4.03;;;;;;;;;;5040690;28;20189;-73
2024/01/27 02:30:23;;;;;;;25.53;3.80;;;;;;;;;;5039083;28;20245;-73
2024/01/27 02:32:49;;;;;;;21.63;4.10;;;;;;;;;;5027517;28;20606;-73
2024/01/27 02:35:15;;;;;;;14.63;3.97;;;;;;;;;;5028336;28;20746;-73
2024/01/27 02:37:41;;;;;;;19.63;3.57;;;;;;;;;;5037590;28;20393;-73
2024/01/27 02:40:08;;;;;;;20.30;3.90;;;;;;;;;;5029323;28;20665;-73
2024/01/27 02:42:33;;;;;;;28.83;4.17;;;;;;;;;;5023455;28;20186;-73
2024/01/27 02:44:59;;;;;;;16.60;3.43;;;;;;;;;;5043632;28;20200;-73
2024/01/27 02:47:24;;;;;;;20.83;3.87;;;;;;;;;;5030306;28;20186;-73
2024/01/27 02:49:50;;;;;;;20.80;3.90;;;;;;;;;;5053673;28;20254;-73
2024/01/27 02:52:15;;;;;;;13.67;3.50;;;;;;;;;;5053535;28;20649;-73
2024/01/27 02:54:41;;;;;;;24.97;4.10;;;;;;;;;;5048329;28;20197;-73
2024/01/27 02:57:06;;;;;;;27.53;4.10;;;;;;;;;;5039199;28;20620;-73
2024/01/27 02:59:31;;;;;;;22.83;4.17;;;;;;;;;;5035871;28;20281;-73
2024/01/27 03:01:57;;;;;;;21.40;4.30;;;;;;;;;;5047819;28;20193;-73
2024/01/27 03:04:22;;;;;;;16.87;3.73;;;;;;;;;;5030540;28;20657;-73
2024/01/27 03:06:48;;;;;;;19.73;4.57;;;;;;;;;;5040768;28;20193;-73
2024/01/27 03:09:13;;;;;;;24.00;3.93;;;;;;;;;;5044924;28;20206;-73
2024/01/27 03:11:39;;;;;;;28.30;4.77;;;;;;;;;;5038220;28;20552;-73
2024/01/27 03:14:04;;;;;;;24.07;4.73;;;;;;;;;;5045159;28;20193;-73
2024/01/27 03:16:30;;;;;;;32.73;5.20;;;;;;;;;;5038165;28;20681;-73
2024/01/27 03:18:55;;;;;;;26.73;4.37;;;;;;;;;;5051793;28;20317;-73
2024/01/27 03:21:23;;;;;;;23.27;4.30;;;;;;;;;;5050652;28;20493;-72
2024/01/27 03:23:48;;;;;;;25.27;5.07;;;;;;;;;;5029912;28;20212;-73
2024/01/27 03:26:14;;;;;;;24.63;5.03;;;;;;;;;;5031530;28;20190;-73
2024/01/27 03:28:39;;;;;;;19.67;5.03;;;;;;;;;;5049060;28;20285;-73
2024/01/27 03:31:04;;;;;;;24.30;5.03;;;;;;;;;;5046340;28;20555;-73
2024/01/27 03:33:30;;;;;;;27.47;5.83;;;;;;;;;;5047455;28;20260;-73
2024/01/27 03:35:56;;;;;;;29.17;4.83;;;;;;;;;;5043386;28;20270;-73
2024/01/27 03:38:21;;;;;;;20.40;5.67;;;;;;;;;;5050106;28;20197;-73
2024/01/27 03:40:47;;;;;;;17.50;4.73;;;;;;;;;;5039005;28;20216;-73
2024/01/27 03:43:12;;;;;;;22.20;5.50;;;;;;;;;;5042496;28;20224;-73
2024/01/27 03:45:37;;;;;;;28.67;6.00;;;;;;;;;;5043707;28;20198;-73
2024/01/27 03:48:03;;;;;;;28.60;4.97;;;;;;;;;;5047992;28;20211;-73
2024/01/27 03:50:28;;;;;;;26.23;6.07;;;;;;;;;;5044741;28;20229;-72
2024/01/27 03:52:54;;;;;;;19.70;5.23;;;;;;;;;;5042646;28;20186;-72
2024/01/27 03:55:19;;;;;;;26.70;5.57;;;;;;;;;;5023683;28;20727;-72
2024/01/27 03:57:45;;;;;;;26.23;6.03;;;;;;;;;;5052238;28;20190;-72
2024/01/27 04:00:12;;;;;;;28.27;6.67;;;;;;;;;;5033453;28;20190;-72
2024/01/27 04:02:38;;;;;;;25.93;7.13;;;;;;;;;;5029663;28;20205;-72
2024/01/27 04:05:05;;;;;;;20.67;6.40;;;;;;;;;;5034319;28;20196;-73
2024/01/27 04:07:30;;;;;;;26.53;6.63;;;;;;;;;;5044710;28;20189;-73
2024/01/27 04:09:56;;;;;;;34.77;6.70;;;;;;;;;;5048710;28;20454;-73
2024/01/27 04:12:21;;;;;;;23.13;7.20;;;;;;;;;;5048903;28;20223;-73
2024/01/27 04:14:47;;;;;;;18.00;6.97;;;;;;;;;;5034470;28;20239;-73
2024/01/27 04:17:12;;;;;;;21.23;6.80;;;;;;;;;;5036787;28;20316;-73
2024/01/27 04:19:38;;;;;;;21.80;7.13;;;;;;;;;;5043882;28;20237;-73
2024/01/27 04:22:03;;;;;;;20.43;6.87;;;;;;;;;;5047370;28;20220;-73
2024/01/27 04:24:29;;;;;;;18.63;7.20;;;;;;;;;;5039232;28;20650;-73
2024/01/27 04:26:54;;;;;;;24.77;7.07;;;;;;;;;;5033022;28;20273;-73
2024/01/27 04:29:20;;;;;;;23.30;7.70;;;;;;;;;;5028331;28;20246;-73
2024/01/27 04:31:45;;;;;;;27.73;7.50;;;;;;;;;;5034822;28;20465;-73
2024/01/27 04:34:11;;;;;;;29.90;7.70;;;;;;;;;;5049056;28;20289;-73
2024/01/27 04:36:36;;;;;;;24.40;7.83;;;;;;;;;;5038531;28;20221;-73
2024/01/27 04:39:02;;;;;;;27.33;8.37;;;;;;;;;;5046685;28;20189;-73
2024/01/27 04:41:28;;;;;;;24.17;6.80;;;;;;;;;;5048091;28;20225;-73
2024/01/27 04:43:55;;;;;;;25.70;8.43;;;;;;;;;;5033207;28;20194;-73
2024/01/27 04:46:20;;;;;;;32.20;8.33;;;;;;;;;;5046903;28;20193;-73
2024/01/27 04:48:46;;;;;;;25.20;8.00;;;;;;;;;;5034903;28;20200;-73
2024/01/27 04:51:11;;;;;;;38.33;8.30;;;;;;;;;;5036281;28;20234;-73
2024/01/27 04:53:37;;;;;;;31.27;8.13;;;;;;;;;;5035036;28;20575;-73
2024/01/27 04:56:02;;;;;;;23.10;7.53;;;;;;;;;;5040783;28;20657;-74
2024/01/27 04:58:28;;;;;;;20.83;7.63;;;;;;;;;;5043257;28;20190;-74
2024/01/27 05:00:53;;;;;;;23.63;8.37;;;;;;;;;;5042049;28;20182;-74
2024/01/27 05:03:19;;;;;;;29.10;8.00;;;;;;;;;;5047869;28;20193;-74
2024/01/27 05:05:44;;;;;;;30.73;7.93;;;;;;;;;;5044214;28;20189;-73
2024/01/27 05:08:09;;;;;;;20.83;7.93;;;;;;;;;;5030991;28;20197;-73
2024/01/27 05:10:36;;;;;;;24.20;8.03;;;;;;;;;;5042788;28;20213;-73
2024/01/27 05:13:01;;;;;;;27.83;7.70;;;;;;;;;;5039855;28;20186;-73
2024/01/27 05:15:27;;;;;;;31.17;7.77;;;;;;;;;;5030528;28;20306;-74
2024/01/27 05:17:52;;;;;;;26.13;7.40;;;;;;;;;;5031052;28;20740;-74
2024/01/27 05:20:19;;;;;;;24.97;8.50;;;;;;;;;;5046273;28;20178;-73
2024/01/27 05:22:44;;;;;;;21.47;8.33;;;;;;;;;;5041464;28;20192;-73
2024/01/27 05:25:10;;;;;;;34.63;9.33;;;;;;;;;;5036007;28;20190;-73
2024/01/27 05:27:39;;;;;;;30.20;7.77;;;;;;;;;;5042746;28;20205;-73
2024/01/27 05:30:06;;;;;;;27.40;7.23;;;;;;;;;;5042342;28;20221;-73
2024/01/27 05:32:32;;;;;;;27.00;8.10;;;;;;;;;;5045979;28;20699;-73
2024/01/27 05:34:57;;;;;;;28.97;7.63;;;;;;;;;;5045240;28;20221;-73
2024/01/27 05:37:22;;;;;;;20.43;7.80;;;;;;;;;;5041664;28;20645;-73
2024/01/27 05:39:48;;;;;;;25.50;8.20;;;;;;;;;;5039967;28;20263;-73
2024/01/27 05:42:13;;;;;;;27.27;8.60;;;;;;;;;;5044381;28;20247;-74
2024/01/27 05:44:40;;;;;;;27.43;8.50;;;;;;;;;;5037149;28;20193;-74
2024/01/27 05:47:06;;;;;;;24.73;8.20;;;;;;;;;;5036687;28;20573;-74
2024/01/27 05:49:31;;;;;;;23.23;8.47;;;;;;;;;;5039539;28;20202;-73
2024/01/27 05:51:57;;;;;;;28.90;9.47;;;;;;;;;;5046284;28;20651;-74
2024/01/27 05:54:22;;;;;;;27.53;8.60;;;;;;;;;;5027275;28;20576;-74
2024/01/27 05:56:48;;;;;;;26.10;8.13;;;;;;;;;;5038234;28;20186;-74
2024/01/27 05:59:13;;;;;;;23.27;8.73;;;;;;;;;;5033963;28;20192;-74
2024/01/27 06:01:40;;;;;;;21.43;8.30;;;;;;;;;;5034321;28;20192;-73
2024/01/27 06:04:06;;;;;;;22.20;7.97;;;;;;;;;;5042655;28;20193;-74
2024/01/27 06:06:32;;;;;;;28.97;9.53;;;;;;;;;;5043166;28;20255;-74
2024/01/27 06:08:57;;;;;;;24.33;8.53;;;;;;;;;;5024529;28;20224;-74
2024/01/27 06:11:26;;;;;;;31.20;9.03;;;;;;;;;;5034481;28;20219;-74
2024/01/27 06:13:51;;;;;;;26.50;8.73;;;;;;;;;;5031682;28;20655;-74
2024/01/27 06:16:20;;;;;;;26.27;8.10;;;;;;;;;;5039032;28;20229;-74
2024/01/27 06:18:45;;;;;;;30.43;8.80;;;;;;;;;;5033760;28;20205;-74
2024/01/27 06:21:11;;;;;;;22.57;8.73;;;;;;;;;;5040042;28;20185;-74
2024/01/27 06:23:36;;;;;;;31.50;9.10;;;;;;;;;;5040247;28;20193;-74
2024/01/27 06:26:08;;;;;;;31.20;9.57;;;;;;;;;;5035388;28;20194;-74
2024/01/27 06:28:34;;;;;;;34.80;9.80;;;;;;;;;;5041836;28;20190;-74
2024/01/27 06:31:01;;;;;;;33.67;9.67;;;;;;;;;;5043619;28;20206;-74
2024/01/27 06:33:26;;;;;;;30.50;9.50;;;;;;;;;;5046091;28;20185;-74
2024/01/27 06:35:52;;;;;;;29.37;9.93;;;;;;;;;;5035468;28;20565;-74
2024/01/27 06:38:17;;;;;;;27.40;9.67;;;;;;;;;;5047525;28;20200;-74
2024/01/27 06:40:42;;;;;;;31.17;11.47;;;;;;;;;;5032033;28;20182;-74
2024/01/27 06:43:10;;;;;;;29.97;10.77;;;;;;;;;;5043803;28;20182;-74
2024/01/27 06:45:36;;;;;;;25.57;11.10;;;;;;;;;;5046966;28;20336;-74
2024/01/27 06:48:01;;;;;;;29.40;10.93;;;;;;;;;;5031722;28;20689;-74
2024/01/27 06:50:27;;;;;;;34.33;10.87;;;;;;;;;;5044178;28;20206;-73
2024/01/27 06:52:52;;;;;;;34.07;10.80;;;;;;;;;;5039897;28;20516;-73
2024/01/27 06:55:18;;;;;;;34.87;10.43;;;;;;;;;;5036734;28;20190;-73
2024/01/27 06:57:43;;;;;;;32.23;11.17;;;;;;;;;;5033915;28;20197;-73
2024/01/27 07:00:09;;;;;;;33.70;10.87;;;;;;;;;;5033521;28;20197;-74
2024/01/27 07:02:34;;;;;;;32.67;10.77;;;;;;;;;;5037624;28;20265;-73
2024/01/27 07:05:00;;;;;;;32.17;11.13;;;;;;;;;;5056684;28;20624;-73
2024/01/27 07:07:27;;;;;;;27.17;10.77;;;;;;;;;;5038484;28;20221;-72
2024/01/27 07:09:57;;;;;;;28.30;11.20;;;;;;;;;;5028462;28;20930;-72
2024/01/27 07:12:22;;;;;;;28.57;13.03;;;;;;;;;;5033217;28;20758;-73
2024/01/27 07:14:48;;;;;;;34.53;11.67;;;;;;;;;;5030627;28;20213;-72
2024/01/27 07:17:13;;;;;;;31.40;10.77;;;;;;;;;;5037981;28;20308;-73
2024/01/27 07:19:39;;;;;;;33.47;11.40;;;;;;;;;;5049174;28;20558;-74
2024/01/27 07:22:05;;;;;;;28.87;12.20;;;;;;;;;;5043877;28;20673;-73
2024/01/27 07:24:30;;;;;;;39.47;12.27;;;;;;;;;;5037139;28;20193;-73
2024/01/27 07:26:55;;;;;;;31.50;12.07;;;;;;;;;;5034264;28;20192;-73
2024/01/27 07:29:21;;;;;;;23.70;12.10;;;;;;;;;;5047526;28;20299;-73
2024/01/27 07:31:47;;;;;;;34.90;11.73;;;;;;;;;;5043029;28;20259;-72
2024/01/27 07:34:13;;;;;;;28.10;12.17;;;;;;;;;;5032922;28;20244;-72
2024/01/27 07:36:38;;;;;;;34.57;13.60;;;;;;;;;;5040380;28;20186;-72
2024/01/27 07:39:04;;;;;;;34.73;13.53;;;;;;;;;;5035027;28;20266;-73
2024/01/27 07:41:30;;;;;;;36.43;14.00;;;;;;;;;;5038070;28;20596;-72
2024/01/27 07:43:56;;;;;;;35.23;14.53;;;;;;;;;;5032802;28;20209;-72
2024/01/27 07:46:22;;;;;;;40.53;15.10;;;;;;;;;;5054981;28;20245;-72
2024/01/27 07:48:48;;;;;;;35.43;13.97;;;;;;;;;;5033623;28;20636;-72
2024/01/27 07:51:15;;;;;;;35.13;13.60;;;;;;;;;;5011213;28;20213;-72
2024/01/27 07:53:40;;;;;;;35.13;15.80;;;;;;;;;;5031623;28;20178;-72
2024/01/27 07:56:06;;;;;;;44.37;16.93;;;;;;;;;;5049029;28;20684;-72
2024/01/27 07:58:32;;;;;;;43.27;16.87;;;;;;;;;;5040746;28;20197;-73
2024/01/27 08:00:57;;;;;;;43.63;16.80;;;;;;;;;;5042227;28;20181;-72
2024/01/27 08:03:23;;;;;;;38.93;16.73;;;;;;;;;;5031094;28;20645;-72
2024/01/27 08:05:48;;;;;;;37.47;16.93;;;;;;;;;;5041413;28;20185;-72
2024/01/27 08:08:14;;;;;;;34.53;17.07;;;;;;;;;;5039815;28;20209;-72
2024/01/27 08:10:40;;;;;;;45.07;17.27;;;;;;;;;;5031388;28;20229;-72
2024/01/27 08:13:06;;;;;;;47.00;18.67;;;;;;;;;;5043681;28;20193;-72
2024/01/27 08:15:32;;;;;;;51.23;18.07;;;;;;;;;;5041600;28;20264;-72
2024/01/27 08:17:57;;;;;;;46.93;17.87;;;;;;;;;;5037513;28;20233;-73
2024/01/27 08:20:23;;;;;;;35.27;17.07;;;;;;;;;;5030409;28;20212;-73
2024/01/27 08:22:51;;;;;;;49.20;18.77;;;;;;;;;;5042022;28;20236;-73
2024/01/27 08:25:17;;;;;;;38.43;18.43;;;;;;;;;;5045624;28;20216;-73
2024/01/27 08:27:43;;;;;;;47.63;19.50;;;;;;;;;;5045797;28;20277;-73
2024/01/27 08:30:09;;;;;;;45.60;18.83;;;;;;;;;;5032854;28;20284;-72
2024/01/27 08:32:35;;;;;;;40.47;18.43;;;;;;;;;;5042722;28;20227;-73
2024/01/27 08:35:01;;;;;;;42.67;18.13;;;;;;;;;;5039612;28;20760;-73
2024/01/27 08:37:27;;;;;;;42.47;17.43;;;;;;;;;;5042791;28;20680;-73
2024/01/27 08:39:52;;;;;;;34.17;17.50;;;;;;;;;;5045516;28;20182;-73
2024/01/27 08:42:18;;;;;;;51.00;18.80;;;;;;;;;;5041289;28;20763;-73
2024/01/27 08:44:43;;;;;;;31.53;17.70;;;;;;;;;;5036327;28;20248;-73
2024/01/27 08:47:09;;;;;;;38.97;17.73;;;;;;;;;;5038165;28;20193;-73
2024/01/27 08:49:34;;;;;;;39.80;16.87;;;;;;;;;;5053356;28;20209;-73
2024/01/27 08:52:00;;;;;;;38.43;18.50;;;;;;;;;;5040481;28;20274;-73
2024/01/27 08:54:25;;;;;;;42.03;18.13;;;;;;;;;;5033971;28;20397;-73
2024/01/27 08:56:51;;;;;;;34.73;17.60;;;;;;;;;;5037803;28;20190;-73
2024/01/27 08:59:16;;;;;;;44.33;17.17;;;;;;;;;;5036795;28;20653;-73
2024/01/27 09:01:42;;;;;;;32.10;16.73;;;;;;;;;;5019277;28;20193;-73
2024/01/27 09:04:09;;;;;;;39.30;17.63;;;;;;;;;;5042886;28;20275;-73
2024/01/27 09:06:34;;;;;;;43.23;18.00;;;;;;;;;;5044576;28;20182;-73
2024/01/27 09:09:00;;;;;;;34.57;15.23;;;;;;;;;;5048031;28;20181;-73
2024/01/27 09:11:29;;;;;;;31.67;15.23;;;;;;;;;;5031928;28;20221;-74
2024/01/27 09:13:55;;;;;;;36.87;15.43;;;;;;;;;;5041463;28;20190;-74
2024/01/27 09:16:21;;;;;;;31.40;15.13;;;;;;;;;;5042757;28;20225;-73
2024/01/27 09:18:46;;;;;;;34.50;15.83;;;;;;;;;;5043631;28;20215;-73
2024/01/27 09:21:12;;;;;;;33.30;14.10;;;;;;;;;;5040111;28;20665;-73
2024/01/27 09:23:37;;;;;;;31.57;14.97;;;;;;;;;;5046903;28;20191;-74
2024/01/27 09:26:04;;;;;;;33.00;13.93;;;;;;;;;;5041320;28;20216;-73
2024/01/27 09:28:29;;;;;;;31.87;13.87;;;;;;;;;;5034550;28;20185;-73
2024/01/27 09:30:55;;;;;;;34.27;14.10;;;;;;;;;;5035163;28;20210;-73
2024/01/27 09:33:22;;;;;;;30.77;13.20;;;;;;;;;;5043263;28;20199;-73
2024/01/27 09:35:49;;;;;;;29.53;13.73;;;;;;;;;;5040869;28;20189;-73
2024/01/27 09:38:14;;;;;;;28.03;12.87;;;;;;;;;;5045470;28;20212;-74
2024/01/27 09:40:40;;;;;;;28.03;12.77;;;;;;;;;;5033072;28;20212;-74
2024/01/27 09:43:06;;;;;;;24.77;12.67;;;;;;;;;;5025988;28;20558;-73
2024/01/27 09:45:32;;;;;;;32.93;11.97;;;;;;;;;;5029328;28;20193;-74
2024/01/27 09:47:59;;;;;;;30.10;12.00;;;;;;;;;;5036901;28;20190;-74
2024/01/27 09:50:25;;;;;;;26.23;12.07;;;;;;;;;;5038709;28;20198;-74
2024/01/27 09:52:51;;;;;;;23.43;11.10;;;;;;;;;;5033842;28;20533;-74
2024/01/27 09:55:17;;;;;;;22.57;11.47;;;;;;;;;;5040783;28;20212;-74
2024/01/27 09:57:44;;;;;;;25.90;12.50;;;;;;;;;;5042753;28;20185;-74
2024/01/27 10:00:11;;;;;;;30.93;10.43;;;;;;;;;;5043164;28;20181;-74
2024/01/27 10:02:39;;;;;;;32.50;11.97;;;;;;;;;;5042364;28;20267;-74
2024/01/27 10:05:07;;;;;;;27.50;11.23;;;;;;;;;;5037496;28;20284;-74
2024/01/27 10:07:32;;;;;;;25.37;10.37;;;;;;;;;;5037447;28;20771;-74
2024/01/27 10:09:58;;;;;;;27.10;10.67;;;;;;;;;;5040631;28;20213;-74
2024/01/27 10:12:25;;;;;;;24.43;10.30;;;;;;;;;;5039994;28;20224;-74
2024/01/27 10:14:51;;;;;;;25.67;10.60;;;;;;;;;;5044840;28;20598;-74
2024/01/27 10:17:26;;;;;;;27.30;11.57;;;;;;;;;;5044885;28;20545;-74
2024/01/27 10:20:15;;;;;;;25.73;9.97;;;;;;;;;;5023337;28;20201;-74
2024/01/27 10:22:41;;;;;;;30.67;11.13;;;;;;;;;;5046461;28;20201;-74
2024/01/27 10:25:08;;;;;;;27.67;10.10;;;;;;;;;;5045705;28;20581;-74
2024/01/27 10:27:33;;;;;;;25.17;10.77;;;;;;;;;;5046640;28;20247;-74
2024/01/27 10:29:59;;;;;;;20.63;9.93;;;;;;;;;;5043265;28;20213;-74
2024/01/27 10:32:24;;;;;;;26.70;9.60;;;;;;;;;;5031852;28;20196;-74
2024/01/27 10:35:04;;;;;;;25.47;9.70;;;;;;;;;;5036230;28;20503;-74
2024/01/27 10:37:29;;;;;;;23.03;10.70;;;;;;;;;;5041287;28;20231;-74
2024/01/27 10:40:03;;;;;;;22.23;9.10;;;;;;;;;;5046097;28;20612;-74
2024/01/27 10:42:30;;;;;;;27.67;9.70;;;;;;;;;;5044307;28;20194;-74
2024/01/27 10:44:59;;;;;;;20.43;9.77;;;;;;;;;;5045691;28;20557;-73
2024/01/27 10:47:28;;;;;;;16.57;8.83;;;;;;;;;;5041537;28;20186;-74
2024/01/27 10:49:56;;;;;;;16.23;8.37;;;;;;;;;;5042312;28;21287;-73
2024/01/27 10:52:28;;;;;;;17.53;8.67;;;;;;;;;;5043988;28;20198;-74
2024/01/27 10:55:03;;;;;;;22.10;9.20;;;;;;;;;;5037172;28;20277;-74
2024/01/27 10:57:29;;;;;;;23.17;9.07;;;;;;;;;;5030508;28;20259;-73
2024/01/27 10:59:56;;;;;;;23.23;8.60;;;;;;;;;;5047629;28;20181;-74
2024/01/27 11:02:22;;;;;;;20.20;8.20;;;;;;;;;;5029402;28;20198;-74
2024/01/27 11:04:49;;;;;;;24.20;8.77;;;;;;;;;;5048694;28;20269;-73
2024/01/27 11:07:15;;;;;;;18.43;7.93;;;;;;;;;;5047895;28;20224;-74
2024/01/27 11:09:42;;;;;;;20.40;8.23;;;;;;;;;;5049215;28;20209;-74
2024/01/27 11:12:08;;;;;;;16.50;7.70;;;;;;;;;;5049390;28;20193;-74
2024/01/27 11:14:33;;;;;;;21.33;7.07;;;;;;;;;;5039419;28;20190;-74
2024/01/27 11:16:59;;;;;;;20.43;7.67;;;;;;;;;;5030607;28;20666;-74
2024/01/27 11:19:24;;;;;;;22.70;7.20;;;;;;;;;;5048334;28;20233;-74
2024/01/27 11:22:03;;;;;;;21.63;7.60;;;;;;;;;;5047477;28;20189;-74
2024/01/27 11:24:28;;;;;;;18.43;7.47;;;;;;;;;;5036248;28;20197;-73
2024/01/27 11:27:26;;;;;;;20.77;7.30;;;;;;;;;;5040175;28;20252;-74
2024/01/27 11:29:51;;;;;;;18.73;7.00;;;;;;;;;;5012158;28;20525;-73
2024/01/27 11:32:17;;;;;;;20.37;7.30;;;;;;;;;;5040728;28;20262;-73
2024/01/27 11:34:44;;;;;;;17.47;6.90;;;;;;;;;;5035408;28;20239;-72
2024/01/27 11:37:15;;;;;;;17.53;6.27;;;;;;;;;;5034214;28;20209;-72
2024/01/27 11:39:40;;;;;;;18.90;6.07;;;;;;;;;;5029053;28;20189;-73
2024/01/27 11:42:13;;;;;;;18.23;6.20;;;;;;;;;;5040668;28;20190;-72
2024/01/27 11:44:39;;;;;;;17.03;5.80;;;;;;;;;;5040316;28;20221;-72
2024/01/27 11:47:05;;;;;;;16.80;5.77;;;;;;;;;;5037776;28;20223;-72
2024/01/27 11:49:32;;;;;;;16.77;5.23;;;;;;;;;;5038710;28;20196;-73
2024/01/27 11:51:58;;;;;;;16.13;5.50;;;;;;;;;;5038507;28;20226;-73
2024/01/27 11:54:23;;;;;;;15.70;5.67;;;;;;;;;;5042565;28;20666;-74
2024/01/27 11:56:49;;;;;;;16.90;5.00;;;;;;;;;;5030199;28;20686;-73
2024/01/27 11:59:15;;;;;;;19.50;7.07;;;;;;;;;;5040019;28;20236;-73
2024/01/27 12:01:41;;;;;;;20.60;5.90;;;;;;;;;;5014437;28;20197;-73
2024/01/27 12:04:09;;;;;;;14.37;5.40;;;;;;;;;;5035835;28;20232;-73
2024/01/27 12:06:34;;;;;;;15.63;5.57;;;;;;;;;;5039344;28;20189;-73
2024/01/27 12:09:00;;;;;;;21.50;6.15;;;;;;;;;;5036252;28;20194;-73
2024/01/27 12:11:26;;;;;;;15.40;5.20;;;;;;;;;;5044812;28;20217;-73
2024/01/27 12:13:54;;;;;;;17.10;5.40;;;;;;;;;;5039721;28;20821;-73
2024/01/27 12:16:22;;;;;;;12.63;5.53;;;;;;;;;;5034780;28;20221;-73
2024/01/27 12:18:51;;;;;;;17.53;5.40;;;;;;;;;;5040089;28;20224;-73
2024/01/27 12:21:21;;;;;;;19.30;6.13;;;;;;;;;;5037365;28;20570;-73
2024/01/27 12:23:51;;;;;;;14.87;5.70;;;;;;;;;;5043741;28;20196;-74
2024/01/27 12:26:16;;;;;;;15.63;5.87;;;;;;;;;;5035410;28;20286;-73
2024/01/27 12:28:45;;;;;;;17.67;5.63;;;;;;;;;;5044152;28;20269;-74
2024/01/27 12:31:11;;;;;;;19.37;5.47;;;;;;;;;;5041727;28;20664;-74
2024/01/27 12:33:36;;;;;;;16.08;5.57;;;;;;;;;;5043341;28;20216;-74
2024/01/27 12:36:02;;;;;;;17.27;5.43;;;;;;;;;;5046587;28;20284;-73
2024/01/27 12:38:27;;;;;;;17.83;5.57;;;;;;;;;;5035771;28;20201;-74
2024/01/27 12:40:52;;;;;;;21.45;5.55;;;;;;;;;;5045624;28;20181;-74
2024/01/27 12:43:18;;;;;;;13.27;5.50;;;;;;;;;;5043663;28;20193;-73
2024/01/27 12:45:43;;;;;;;17.98;5.80;;;;;;;;;;5054089;28;20269;-73
2024/01/27 12:48:09;;;;;;;19.33;5.93;;;;;;;;;;5052154;28;20272;-73
2024/01/27 12:50:34;;;;;;;20.42;6.28;;;;;;;;;;5043690;28;20522;-74
2024/01/27 12:53:00;;;;;;;19.40;6.27;;;;;;;;;;5047829;28;20208;-74
2024/01/27 12:55:25;;;;;;;12.73;5.60;;;;;;;;;;5037507;28;20293;-73
2024/01/27 12:57:51;;;;;;;14.52;5.15;;;;;;;;;;5044272;28;20189;-72
2024/01/27 13:00:17;;;;;;;21.38;6.18;;;;;;;;;;5035378;28;20197;-73
2024/01/27 13:02:43;;;;;;;15.27;4.82;;;;;;;;;;5030788;28;20244;-72
2024/01/27 13:05:09;;;;;;;16.17;5.17;;;;;;;;;;5035145;28;20205;-72
2024/01/27 13:07:34;;;;;;;15.97;4.43;;;;;;;;;;5047715;28;20673;-72
2024/01/27 13:10:00;;;;;;;13.15;4.28;;;;;;;;;;5039457;28;20218;-72
2024/01/27 13:12:25;;;;;;;13.50;4.38;;;;;;;;;;5034344;28;20770;-72
2024/01/27 13:14:51;;;;;;;15.20;4.37;;;;;;;;;;5035513;28;20221;-73
2024/01/27 13:17:16;;;;;;;19.03;4.33;;;;;;;;;;5035968;28;20252;-72
2024/01/27 13:19:42;;;;;;;12.90;4.70;;;;;;;;;;5035206;28;20225;-72
2024/01/27 13:22:07;;;;;;;19.55;4.80;;;;;;;;;;5034322;28;20579;-72
2024/01/27 13:24:33;;;;;;;17.42;4.18;;;;;;;;;;5027904;28;20219;-73
2024/01/27 13:27:00;;;;;;;19.27;4.25;;;;;;;;;;5033769;28;20699;-72
2024/01/27 13:29:27;;;;;;;14.57;4.40;;;;;;;;;;5039671;28;20190;-73
2024/01/27 13:31:52;;;;;;;18.23;4.40;;;;;;;;;;5034186;28;20181;-71
2024/01/27 13:34:18;;;;;;;12.10;4.13;;;;;;;;;;5040189;28;20288;-71
2024/01/27 13:36:44;;;;;;;11.95;3.55;;;;;;;;;;5039465;28;20287;-71
2024/01/27 13:39:09;;;;;;;18.90;5.05;;;;;;;;;;5033962;28;20247;-72
2024/01/27 13:41:35;;;;;;;15.05;3.97;;;;;;;;;;5043482;28;20261;-72
2024/01/27 13:44:00;;;;;;;16.23;4.07;;;;;;;;;;5041136;28;20189;-72
2024/01/27 13:46:25;;;;;;;16.40;4.43;;;;;;;;;;5043731;28;20284;-71
2024/01/27 13:48:51;;;;;;;15.48;4.20;;;;;;;;;;5033453;28;20220;-71
2024/01/27 13:51:16;;;;;;;14.40;4.45;;;;;;;;;;5028212;28;20254;-72
2024/01/27 13:53:42;;;;;;;16.57;4.77;;;;;;;;;;5033754;28;20545;-72
2024/01/27 13:56:07;;;;;;;16.02;3.88;;;;;;;;;;5035635;28;20203;-72
2024/01/27 13:58:33;;;;;;;17.17;5.03;;;;;;;;;;5056078;28;20273;-72
2024/01/27 14:00:58;;;;;;;14.55;3.40;;;;;;;;;;5047112;28;20182;-71
2024/01/27 14:03:24;;;;;;;14.90;3.50;;;;;;;;;;5048638;28;20212;-72
2024/01/27 14:05:50;;;;;;;13.32;3.92;;;;;;;;;;5045526;28;20192;-72
2024/01/27 14:08:17;;;;;;;16.87;3.17;;;;;;;;;;5045707;28;20193;-73
2024/01/27 14:10:43;;;;;;;10.68;3.35;;;;;;;;;;5043470;28;20275;-73
2024/01/27 14:13:09;;;;;;;14.35;4.20;;;;;;;;;;5040477;28;20645;-73
2024/01/27 14:15:38;;;;;;;15.77;4.32;;;;;;;;;;5034049;28;20280;-73
2024/01/27 14:18:05;;;;;;;18.05;4.13;;;;;;;;;;5041082;28;20232;-73
2024/01/27 14:20:33;;;;;;;14.57;4.50;;;;;;;;;;5045815;28;20193;-73